Time;durP1;ratioP1;P1;durP2;ratioP2;P2;SDS_P1;SDS_P2;PMS_P1;PMS_P2;Temp;Humidity;BMP_temperature;BMP_pressure;BME280_temperature;BME280_humidity;BME280_pressure;Samples;Min_cycle;Max_cycle;Signal;HPM_P1;HPM_P2
2022/04/24 00:01:54;;;;;;;9.80;6.45;;;10.00;99.90;;;;;;5024491;28;20041;-85
2022/04/24 00:04:19;;;;;;;10.30;6.35;;;10.00;99.90;;;;;;5051701;28;20459;-85
2022/04/24 00:06:46;;;;;;;9.90;6.00;;;10.00;99.90;;;;;;5036611;28;20040;-85
2022/04/24 00:09:14;;;;;;;9.68;6.43;;;10.50;99.90;;;;;;5029879;28;20036;-85
2022/04/24 00:11:40;;;;;;;11.15;6.72;;;10.00;99.90;;;;;;5042499;28;20045;-83
2022/04/24 00:14:09;;;;;;;9.32;6.53;;;10.50;99.90;;;;;;5045020;28;20052;-84
2022/04/24 00:16:35;;;;;;;11.75;6.55;;;10.40;99.90;;;;;;5048167;28;20048;-84
2022/04/24 00:19:01;;;;;;;11.57;6.00;;;9.80;99.90;;;;;;5029519;28;20040;-85
2022/04/24 00:21:27;;;;;;;9.80;6.75;;;9.80;99.90;;;;;;5044912;28;20047;-85
2022/04/24 00:23:52;;;;;;;8.80;6.43;;;9.90;99.90;;;;;;5069897;28;20100;-83
2022/04/24 00:26:18;;;;;;;9.65;6.28;;;9.70;99.90;;;;;;5035357;28;20493;-85
2022/04/24 00:28:44;;;;;;;10.38;6.93;;;9.70;99.90;;;;;;5051737;28;20074;-84
2022/04/24 00:31:09;;;;;;;7.95;5.90;;;9.70;99.90;;;;;;5061589;28;20103;-85
2022/04/24 00:33:35;;;;;;;7.55;6.22;;;9.70;99.90;;;;;;5045142;28;20036;-85
2022/04/24 00:36:04;;;;;;;9.45;5.43;;;9.70;99.90;;;;;;5045514;28;20337;-84
2022/04/24 00:38:32;;;;;;;9.15;6.32;;;9.60;99.90;;;;;;5046772;28;20113;-85
2022/04/24 00:40:58;;;;;;;8.73;6.20;;;10.30;99.90;;;;;;5043091;28;20075;-84
2022/04/24 00:43:23;;;;;;;8.88;6.28;;;9.70;99.90;;;;;;5065686;28;20463;-83
2022/04/24 00:46:00;;;;;;;8.02;5.90;;;9.90;99.90;;;;;;5024509;28;20052;-82
2022/04/24 00:48:26;;;;;;;6.97;5.20;;;9.70;99.90;;;;;;5028139;28;20056;-84
2022/04/24 00:50:52;;;;;;;7.90;6.40;;;9.60;99.90;;;;;;5032342;28;20068;-84
2022/04/24 00:53:18;;;;;;;8.60;6.43;;;9.60;99.90;;;;;;5049360;28;20037;-85
2022/04/24 00:55:44;;;;;;;7.07;6.05;;;9.60;99.90;;;;;;5045846;28;20123;-84
2022/04/24 00:58:10;;;;;;;8.57;6.75;;;9.40;99.90;;;;;;5047029;28;20139;-83
2022/04/24 01:00:38;;;;;;;12.48;7.00;;;9.40;99.90;;;;;;5030494;28;20134;-84
2022/04/24 01:03:04;;;;;;;8.93;6.53;;;9.40;99.90;;;;;;5036524;28;20097;-84
2022/04/24 01:05:30;;;;;;;8.60;6.70;;;9.40;99.90;;;;;;5033376;28;20059;-84
2022/04/24 01:07:56;;;;;;;7.60;6.80;;;9.50;99.90;;;;;;5049727;28;20044;-83
2022/04/24 01:10:21;;;;;;;8.32;6.90;;;9.40;99.90;;;;;;5033315;28;20063;-84
2022/04/24 01:12:47;;;;;;;8.65;6.43;;;9.40;99.90;;;;;;5031827;28;20049;-85
2022/04/24 01:15:13;;;;;;;8.68;6.63;;;9.30;99.90;;;;;;5052799;28;20114;-84
2022/04/24 01:17:40;;;;;;;10.93;6.55;;;9.70;99.90;;;;;;5048861;28;20059;-85
2022/04/24 01:20:06;;;;;;;12.02;6.68;;;9.40;99.90;;;;;;5031485;28;20053;-85
2022/04/24 01:22:33;;;;;;;13.45;6.60;;;9.40;99.90;;;;;;5049175;28;20032;-85
2022/04/24 01:24:58;;;;;;;8.70;6.70;;;9.40;99.90;;;;;;5033369;28;20143;-84
2022/04/24 01:27:24;;;;;;;9.05;6.93;;;9.40;99.90;;;;;;5035272;28;20491;-84
2022/04/24 01:29:50;;;;;;;12.15;7.60;;;9.30;99.90;;;;;;5033743;28;20052;-83
2022/04/24 01:32:16;;;;;;;12.35;6.78;;;10.00;99.90;;;;;;5033066;28;20444;-85
2022/04/24 01:34:44;;;;;;;10.73;7.40;;;10.10;99.90;;;;;;5032249;28;20041;-85
2022/04/24 01:37:10;;;;;;;9.57;6.80;;;9.60;99.90;;;;;;5047081;28;20155;-84
2022/04/24 01:39:36;;;;;;;8.15;6.95;;;10.00;99.90;;;;;;5034601;28;20052;-85
2022/04/24 01:42:02;;;;;;;10.25;6.97;;;9.20;99.90;;;;;;5047499;28;20040;-84
2022/04/24 01:44:27;;;;;;;7.93;6.00;;;9.10;99.90;;;;;;5067950;28;20036;-85
2022/04/24 01:46:53;;;;;;;10.00;7.50;;;9.10;99.90;;;;;;5035349;28;20059;-85
2022/04/24 01:49:20;;;;;;;12.52;7.15;;;9.10;99.90;;;;;;5037165;28;20056;-85
2022/04/24 01:51:48;;;;;;;11.48;7.63;;;9.20;99.90;;;;;;5056235;28;20102;-84
2022/04/24 01:54:13;;;;;;;10.32;7.47;;;9.00;99.90;;;;;;5045068;28;20064;-84
2022/04/24 01:56:39;;;;;;;9.20;7.40;;;8.90;99.90;;;;;;5067444;28;20044;-84
2022/04/24 02:02:47;;;;;;;9.50;6.97;;;8.70;99.90;;;;;;5090546;28;20039;-83
2022/04/24 02:05:13;;;;;;;10.48;8.20;;;9.20;99.90;;;;;;5053151;28;20109;-82
2022/04/24 02:07:39;;;;;;;9.60;7.50;;;8.20;99.90;;;;;;5072974;28;20036;-84
2022/04/24 02:10:05;;;;;;;10.23;8.18;;;8.90;99.90;;;;;;5066700;28;20495;-85
2022/04/24 02:12:30;;;;;;;13.23;7.82;;;8.30;99.90;;;;;;5068260;28;20047;-84
2022/04/24 02:14:57;;;;;;;13.65;7.95;;;8.40;99.90;;;;;;5050062;28;20049;-83
2022/04/24 02:17:23;;;;;;;10.27;7.63;;;8.20;99.90;;;;;;5027143;28;20483;-85
2022/04/24 02:19:48;;;;;;;13.02;8.40;;;8.20;99.90;;;;;;5047073;28;20048;-85
2022/04/24 02:22:14;;;;;;;10.65;8.30;;;8.00;99.90;;;;;;5031319;28;20036;-84
2022/04/24 02:24:40;;;;;;;11.38;8.32;;;8.00;99.90;;;;;;5048919;28;20064;-83
2022/04/24 02:27:05;;;;;;;11.80;8.07;;;8.20;99.90;;;;;;5048466;28;20929;-83
2022/04/24 02:29:33;;;;;;;10.80;7.95;;;7.90;99.90;;;;;;5066718;28;20123;-85
2022/04/24 02:31:59;;;;;;;11.13;8.15;;;8.20;99.90;;;;;;5047089;28;20052;-84
2022/04/24 02:34:26;;;;;;;10.45;7.75;;;8.10;99.90;;;;;;5044439;28;20040;-84
2022/04/24 02:36:52;;;;;;;9.10;7.72;;;7.90;99.90;;;;;;5024752;28;20891;-83
2022/04/24 02:39:18;;;;;;;9.65;7.97;;;8.30;99.90;;;;;;5025410;28;20134;-83
2022/04/24 02:41:44;;;;;;;11.43;7.30;;;8.20;99.90;;;;;;5027696;28;20071;-83
2022/04/24 02:44:09;;;;;;;13.95;8.15;;;8.00;99.90;;;;;;5026194;28;20127;-84
2022/04/24 02:46:35;;;;;;;11.18;8.20;;;7.80;99.90;;;;;;5041603;28;20051;-82
2022/04/24 02:49:00;;;;;;;11.80;7.93;;;7.80;99.90;;;;;;5064662;28;20348;-83
2022/04/24 02:51:26;;;;;;;11.00;8.25;;;8.40;99.90;;;;;;5062404;28;20149;-84
2022/04/24 02:53:52;;;;;;;10.35;8.38;;;8.10;99.90;;;;;;5051491;28;20523;-83
2022/04/24 02:56:17;;;;;;;10.35;8.68;;;7.80;99.90;;;;;;5047246;28;20528;-83
2022/04/24 02:58:44;;;;;;;11.93;8.65;;;7.70;99.90;;;;;;5031134;28;20059;-84
2022/04/24 03:01:11;;;;;;;11.60;8.50;;;7.70;99.90;;;;;;5046377;28;20570;-84
2022/04/24 03:03:38;;;;;;;10.85;8.35;;;7.60;99.90;;;;;;5026695;28;20037;-84
2022/04/24 03:06:04;;;;;;;12.27;8.57;;;7.90;99.90;;;;;;5025650;28;20476;-83
2022/04/24 03:08:30;;;;;;;10.98;8.15;;;7.70;99.90;;;;;;5032669;28;20047;-82
2022/04/24 03:10:56;;;;;;;14.10;7.70;;;7.70;99.90;;;;;;5047391;28;20090;-83
2022/04/24 03:13:21;;;;;;;12.63;8.35;;;7.90;99.90;;;;;;5032133;28;20129;-84
2022/04/24 03:15:47;;;;;;;12.35;7.75;;;7.60;99.90;;;;;;5047723;28;20518;-83
2022/04/24 03:18:13;;;;;;;12.82;7.60;;;7.60;99.90;;;;;;5031739;28;20037;-83
2022/04/24 03:20:39;;;;;;;12.43;8.35;;;7.70;99.90;;;;;;5045569;28;20033;-82
2022/04/24 03:23:04;;;;;;;10.55;8.35;;;7.60;99.90;;;;;;5048332;28;20039;-84
2022/04/24 03:25:30;;;;;;;15.50;7.95;;;7.50;99.90;;;;;;5029815;28;20033;-84
2022/04/24 03:27:56;;;;;;;10.93;8.40;;;7.50;99.90;;;;;;5046070;28;20159;-83
2022/04/24 03:30:22;;;;;;;10.20;7.35;;;7.60;99.90;;;;;;5046355;28;20041;-85
2022/04/24 03:32:48;;;;;;;9.75;8.10;;;7.60;99.90;;;;;;5044834;28;20048;-85
2022/04/24 03:35:14;;;;;;;10.82;7.63;;;7.50;99.90;;;;;;5062526;28;20035;-85
2022/04/24 03:37:41;;;;;;;10.05;7.88;;;7.60;99.90;;;;;;5046902;28;20357;-85
2022/04/24 03:40:08;;;;;;;12.10;8.13;;;7.50;99.90;;;;;;5047378;28;20147;-85
2022/04/24 03:42:35;;;;;;;9.35;7.95;;;7.50;99.90;;;;;;5063322;28;20049;-85
2022/04/24 03:45:01;;;;;;;12.18;8.18;;;7.50;99.90;;;;;;5029196;28;20036;-85
2022/04/24 03:47:27;;;;;;;11.73;7.28;;;7.50;99.90;;;;;;5069547;28;20093;-85
2022/04/24 03:49:54;;;;;;;18.23;8.02;;;7.60;99.90;;;;;;5051581;28;20140;-85
2022/04/24 03:52:19;;;;;;;11.18;8.30;;;7.70;99.90;;;;;;5035332;28;20086;-85
2022/04/24 03:54:45;;;;;;;11.43;8.10;;;7.40;99.90;;;;;;5036787;28;20411;-85
2022/04/24 03:57:14;;;;;;;13.05;7.20;;;7.30;99.90;;;;;;5054124;28;20076;-84
2022/04/24 03:59:40;;;;;;;10.80;6.90;;;7.40;99.90;;;;;;5052876;28;20087;-85
2022/04/24 04:02:06;;;;;;;12.35;8.45;;;7.50;99.90;;;;;;5048192;28;21372;-84
2022/04/24 04:04:32;;;;;;;12.18;7.60;;;7.40;99.90;;;;;;5028039;28;20047;-85
2022/04/24 04:06:58;;;;;;;11.35;7.38;;;7.30;99.90;;;;;;5035885;28;20074;-83
2022/04/24 04:09:24;;;;;;;12.05;8.20;;;7.80;99.90;;;;;;5032551;28;20125;-82
2022/04/24 04:11:50;;;;;;;10.48;7.45;;;7.90;99.90;;;;;;5047804;28;20040;-82
2022/04/24 04:14:16;;;;;;;11.45;7.85;;;7.90;99.90;;;;;;5079875;28;20051;-82
2022/04/24 04:16:42;;;;;;;11.25;7.20;;;7.30;99.90;;;;;;5043437;28;20036;-82
2022/04/24 04:19:08;;;;;;;22.63;8.07;;;7.20;99.90;;;;;;5063499;28;20126;-83
2022/04/24 04:21:34;;;;;;;11.05;7.53;;;7.20;99.90;;;;;;5062517;28;20460;-82
2022/04/24 04:24:00;;;;;;;12.93;8.07;;;7.40;99.90;;;;;;5053577;28;20086;-83
2022/04/24 04:26:26;;;;;;;10.80;8.45;;;7.20;99.90;;;;;;5049139;28;20059;-83
2022/04/24 04:28:51;;;;;;;10.77;8.13;;;7.90;99.90;;;;;;5069803;28;20452;-83
2022/04/24 04:31:17;;;;;;;15.55;7.80;;;7.40;99.90;;;;;;5049455;28;20155;-82
2022/04/24 04:33:43;;;;;;;15.30;8.02;;;7.20;99.90;;;;;;5050432;28;20067;-82
2022/04/24 04:36:09;;;;;;;9.73;7.47;;;7.20;99.90;;;;;;5066209;28;20068;-83
2022/04/24 04:38:35;;;;;;;9.45;7.03;;;7.20;99.90;;;;;;5026560;28;20496;-83
2022/04/24 04:41:01;;;;;;;11.63;8.43;;;7.40;99.90;;;;;;5033747;28;20140;-83
2022/04/24 04:43:26;;;;;;;9.07;7.28;;;7.10;99.90;;;;;;5046047;28;20098;-82
2022/04/24 04:45:52;;;;;;;12.10;7.20;;;7.40;99.90;;;;;;5054370;28;20047;-83
2022/04/24 04:48:18;;;;;;;12.73;8.43;;;7.40;99.90;;;;;;5052111;28;20432;-83
2022/04/24 04:50:44;;;;;;;12.40;8.57;;;7.20;99.90;;;;;;5052782;28;20044;-82
2022/04/24 04:53:10;;;;;;;16.38;8.65;;;7.30;99.90;;;;;;5069251;28;20028;-84
2022/04/24 04:55:36;;;;;;;14.63;8.02;;;7.30;99.90;;;;;;5045089;28;20067;-83
2022/04/24 04:58:02;;;;;;;11.55;8.25;;;7.30;99.90;;;;;;5044931;28;20071;-83
2022/04/24 05:00:28;;;;;;;10.85;7.68;;;7.40;99.90;;;;;;5042940;28;20044;-83
2022/04/24 05:02:54;;;;;;;15.02;9.23;;;7.60;99.90;;;;;;5027524;28;20040;-83
2022/04/24 05:05:22;;;;;;;13.90;8.40;;;8.10;99.90;;;;;;5032169;28;20182;-84
2022/04/24 05:07:48;;;;;;;13.63;8.20;;;7.70;99.90;;;;;;5043384;28;20386;-83
2022/04/24 05:10:14;;;;;;;13.18;8.32;;;7.40;99.90;;;;;;5030686;28;20059;-83
2022/04/24 05:12:39;;;;;;;15.68;8.57;;;7.40;99.90;;;;;;5062707;28;20154;-83
2022/04/24 05:15:07;;;;;;;13.63;9.10;;;7.90;99.90;;;;;;5047548;28;20102;-83
2022/04/24 05:17:34;;;;;;;15.82;9.27;;;7.50;99.90;;;;;;5047843;28;20037;-84
2022/04/24 05:20:01;;;;;;;11.13;7.78;;;7.50;99.90;;;;;;5044949;28;20045;-83
2022/04/24 05:22:27;;;;;;;12.02;8.77;;;7.50;99.90;;;;;;5028752;28;20529;-83
2022/04/24 05:24:52;;;;;;;14.48;9.27;;;7.60;99.90;;;;;;5047128;28;20041;-82
2022/04/24 05:27:19;;;;;;;14.80;9.63;;;7.60;99.90;;;;;;5041039;28;20548;-84
2022/04/24 05:29:46;;;;;;;14.55;9.45;;;8.40;99.90;;;;;;5046178;28;20446;-84
2022/04/24 05:32:14;;;;;;;13.35;9.70;;;7.60;99.90;;;;;;5028100;28;20133;-85
2022/04/24 05:34:40;;;;;;;14.27;9.07;;;8.30;99.90;;;;;;5028750;28;20055;-85
2022/04/24 05:37:06;;;;;;;12.60;9.52;;;7.70;99.90;;;;;;5029054;28;20053;-84
2022/04/24 05:39:32;;;;;;;15.70;9.82;;;7.80;99.90;;;;;;5029094;28;20383;-85
2022/04/24 05:41:58;;;;;;;12.38;9.10;;;8.20;99.90;;;;;;5044224;28;20032;-84
2022/04/24 05:44:24;;;;;;;14.60;9.13;;;7.70;99.90;;;;;;5048355;28;20158;-85
2022/04/24 05:46:50;;;;;;;14.13;9.85;;;7.70;99.90;;;;;;5037763;28;20086;-85
2022/04/24 05:49:17;;;;;;;13.63;9.10;;;8.30;99.90;;;;;;5024874;28;20516;-86
2022/04/24 05:51:45;;;;;;;14.07;9.25;;;8.10;99.90;;;;;;5009831;28;20041;-85
2022/04/24 05:54:15;;;;;;;13.98;9.35;;;7.80;99.90;;;;;;5009781;28;20037;-86
2022/04/24 05:56:41;;;;;;;11.63;7.68;;;7.90;99.90;;;;;;4993925;28;20368;-84
2022/04/24 05:59:08;;;;;;;16.45;8.73;;;8.20;99.90;;;;;;4995772;28;20114;-85
2022/04/24 06:01:34;;;;;;;11.32;7.72;;;8.10;99.90;;;;;;5001109;28;20109;-85
2022/04/24 06:04:00;;;;;;;18.38;8.98;;;8.00;99.90;;;;;;4995168;28;20354;-86
2022/04/24 06:06:25;;;;;;;10.73;6.50;;;9.00;99.90;;;;;;5010247;28;20037;-86
2022/04/24 06:08:51;;;;;;;10.55;7.32;;;8.30;99.90;;;;;;5015920;28;20037;-85
2022/04/24 06:11:18;;;;;;;13.07;7.93;;;8.50;99.90;;;;;;4994313;28;20131;-85
2022/04/24 06:18:03;;;;;;;13.73;6.50;;;8.50;99.90;;;;;;5030022;28;20076;-85
2022/04/24 06:20:28;;;;;;;11.48;6.57;;;8.70;99.90;;;;;;5017940;28;20073;-84
2022/04/24 06:22:59;;;;;;;10.95;7.20;;;8.80;99.90;;;;;;5019467;28;20045;-85
2022/04/24 06:25:26;;;;;;;8.05;5.78;;;8.90;99.90;;;;;;4996630;28;20033;-84
2022/04/24 06:27:53;;;;;;;8.52;6.68;;;9.00;99.90;;;;;;5007286;28;20080;-84
2022/04/24 06:30:21;;;;;;;7.80;5.88;;;9.00;99.90;;;;;;5026260;28;20127;-86
2022/04/24 06:32:47;;;;;;;11.23;6.45;;;9.00;99.90;;;;;;4991088;28;20103;-85
2022/04/24 06:35:17;;;;;;;8.60;6.22;;;9.10;99.90;;;;;;4998536;28;20042;-84
2022/04/24 06:37:49;;;;;;;8.88;5.53;;;9.30;99.90;;;;;;4987657;28;20065;-85
2022/04/24 06:40:16;;;;;;;11.38;5.13;;;9.20;99.90;;;;;;5001047;28;20049;-83
2022/04/24 06:43:14;;;;;;;10.43;4.57;;;9.60;99.90;;;;;;5006949;28;20457;-83
2022/04/24 06:45:43;;;;;;;8.43;4.53;;;9.30;99.90;;;;;;4940623;28;20523;-82
2022/04/24 06:48:14;;;;;;;14.82;4.68;;;9.40;99.90;;;;;;4913982;28;20039;-83
2022/04/24 06:50:47;;;;;;;10.90;4.32;;;9.40;99.90;;;;;;4934024;28;20054;-81
2022/04/24 06:53:20;;;;;;;5.80;3.47;;;9.50;99.90;;;;;;4938086;28;20039;-83
2022/04/24 06:55:47;;;;;;;9.98;3.28;;;9.60;99.90;;;;;;4924079;28;20059;-84
2022/04/24 06:58:15;;;;;;;5.25;4.10;;;10.30;99.90;;;;;;4931797;28;20494;-81
2022/04/24 07:00:45;;;;;;;7.80;3.90;;;9.80;99.90;;;;;;4927523;28;20109;-81
2022/04/24 07:03:14;;;;;;;5.65;3.30;;;10.20;99.90;;;;;;4956618;28;20034;-81
2022/04/24 07:05:42;;;;;;;6.15;3.60;;;9.90;99.90;;;;;;4946736;28;20055;-81
2022/04/24 07:08:10;;;;;;;6.78;3.13;;;10.50;99.90;;;;;;4929256;28;20071;-84
2022/04/24 07:10:48;;;;;;;6.53;2.88;;;10.70;99.90;;;;;;4957647;28;20085;-80
2022/04/24 07:13:14;;;;;;;8.10;2.90;;;10.90;99.90;;;;;;4954009;28;20039;-82
2022/04/24 07:15:43;;;;;;;10.70;3.10;;;10.30;99.90;;;;;;4930810;28;20051;-83
2022/04/24 07:18:10;;;;;;;5.80;3.10;;;10.40;99.90;;;;;;4933294;28;20125;-83
2022/04/24 07:20:36;;;;;;;6.35;2.95;;;10.40;99.90;;;;;;4945176;28;20124;-84
2022/04/24 07:23:05;;;;;;;9.07;3.03;;;10.50;99.90;;;;;;5026454;28;20037;-84
2022/04/24 07:25:46;;;;;;;6.90;2.88;;;11.10;99.90;;;;;;5010884;28;20179;-81
2022/04/24 07:28:13;;;;;;;3.47;2.35;;;10.70;99.90;;;;;;5010296;28;20194;-80
2022/04/24 07:30:40;;;;;;;5.88;3.17;;;10.80;99.90;;;;;;5010629;28;20044;-78
2022/04/24 07:33:06;;;;;;;6.85;2.90;;;10.90;99.90;;;;;;5007903;28;20735;-79
2022/04/24 07:35:37;;;;;;;2.78;2.00;;;11.10;99.90;;;;;;5010382;28;20336;-78
2022/04/24 07:38:03;;;;;;;6.18;2.10;;;11.00;99.90;;;;;;5025514;28;20036;-81
2022/04/24 07:40:31;;;;;;;5.15;2.47;;;11.10;99.90;;;;;;5012596;28;20127;-77
2022/04/24 07:43:00;;;;;;;5.13;2.30;;;11.60;99.90;;;;;;5030440;28;20049;-80
2022/04/24 07:45:34;;;;;;;6.57;3.10;;;11.20;99.90;;;;;;5006278;28;20123;-77
2022/04/24 07:48:01;;;;;;;5.20;2.70;;;11.30;99.90;;;;;;5015206;28;20029;-77
2022/04/24 07:50:29;;;;;;;5.80;3.00;;;11.30;99.90;;;;;;5000968;28;20049;-81
2022/04/24 07:52:56;;;;;;;5.32;2.30;;;11.30;99.90;;;;;;4991769;28;20075;-80
2022/04/24 07:55:24;;;;;;;5.43;2.70;;;11.50;99.90;;;;;;5005140;28;20491;-82
2022/04/24 07:58:00;;;;;;;8.65;2.63;;;11.60;99.90;;;;;;5023024;28;20131;-79
2022/04/24 08:00:31;;;;;;;7.82;3.30;;;11.80;99.90;;;;;;5009152;28;20125;-84
2022/04/24 08:02:57;;;;;;;4.60;2.53;;;11.90;99.90;;;;;;5017473;28;20075;-86
2022/04/24 08:05:45;;;;;;;4.97;3.10;;;12.00;99.90;;;;;;4995059;28;20037;-84
2022/04/24 08:08:17;;;;;;;5.90;3.03;;;11.90;99.90;;;;;;5005007;28;20457;-82
2022/04/24 08:10:48;;;;;;;7.35;2.97;;;12.00;99.90;;;;;;4988662;28;20056;-83
2022/04/24 08:13:14;;;;;;;7.20;3.47;;;12.10;99.90;;;;;;4985236;28;20033;-85
2022/04/24 08:15:41;;;;;;;43.15;3.70;;;12.20;99.90;;;;;;4995388;28;20038;-82
2022/04/24 08:18:07;;;;;;;6.60;2.72;;;12.20;99.90;;;;;;4993026;28;20049;-85
2022/04/24 08:20:34;;;;;;;5.82;2.92;;;12.20;99.90;;;;;;5008304;28;20053;-83
2022/04/24 08:23:02;;;;;;;7.43;2.75;;;12.20;99.90;;;;;;5015182;28;20376;-86
2022/04/24 08:25:29;;;;;;;4.40;2.60;;;12.20;99.90;;;;;;4981866;28;20164;-84
2022/04/24 08:27:57;;;;;;;8.70;2.97;;;12.30;99.90;;;;;;5018329;28;20044;-84
2022/04/24 08:30:24;;;;;;;8.65;3.45;;;12.40;99.90;;;;;;5005131;28;20060;-84
2022/04/24 08:32:50;;;;;;;6.68;3.08;;;12.40;99.90;;;;;;5015546;28;20045;-85
2022/04/24 08:35:18;;;;;;;7.43;2.92;;;12.30;99.90;;;;;;5022961;28;20070;-82
2022/04/24 08:37:45;;;;;;;5.47;2.83;;;12.40;99.90;;;;;;5021923;28;20049;-85
2022/04/24 08:40:16;;;;;;;3.78;2.28;;;12.40;99.90;;;;;;4995356;28;20443;-83
2022/04/24 08:42:43;;;;;;;6.97;2.83;;;12.30;99.90;;;;;;5023185;28;20037;-84
2022/04/24 08:45:14;;;;;;;7.50;3.00;;;12.90;99.90;;;;;;5024668;28;20038;-82
2022/04/24 08:47:41;;;;;;;4.93;2.80;;;12.50;99.90;;;;;;5024012;28;20365;-86
2022/04/24 08:50:08;;;;;;;4.57;2.60;;;12.50;99.90;;;;;;5042978;28;20402;-84
2022/04/24 08:52:34;;;;;;;7.18;2.97;;;12.60;99.90;;;;;;5029150;28;20045;-82
2022/04/24 08:55:04;;;;;;;7.82;2.85;;;12.70;99.90;;;;;;5043879;28;21538;-87
2022/04/24 08:57:30;;;;;;;8.48;3.20;;;12.80;99.90;;;;;;5029287;28;20521;-84
2022/04/24 09:00:00;;;;;;;6.60;3.33;;;12.90;99.90;;;;;;5030619;28;20044;-84
2022/04/24 09:02:26;;;;;;;6.70;2.90;;;12.70;99.90;;;;;;5043371;28;20094;-83
2022/04/24 09:04:53;;;;;;;6.50;3.47;;;12.80;99.90;;;;;;5064935;28;20175;-78
2022/04/24 09:07:20;;;;;;;6.32;3.40;;;12.80;99.90;;;;;;5045794;28;20056;-77
2022/04/24 09:09:51;;;;;;;7.07;2.65;;;12.80;99.90;;;;;;5036821;28;20082;-76
2022/04/24 09:12:21;;;;;;;4.80;3.40;;;12.80;99.90;;;;;;5054728;28;20132;-76
2022/04/24 09:14:51;;;;;;;4.05;3.03;;;12.80;99.90;;;;;;5050619;28;20060;-75
2022/04/24 09:17:25;;;;;;;6.97;3.80;;;12.80;99.90;;;;;;5033533;28;20456;-85
2022/04/24 09:19:53;;;;;;;5.72;2.80;;;12.90;99.90;;;;;;5006867;28;20480;-86
2022/04/24 09:22:26;;;;;;;6.90;3.20;;;12.80;99.90;;;;;;5021959;28;20083;-85
2022/04/24 09:24:55;;;;;;;8.90;3.88;;;12.70;99.90;;;;;;5022512;28;20041;-85
2022/04/24 09:27:26;;;;;;;5.97;3.25;;;13.30;99.90;;;;;;5009074;28;20130;-86
2022/04/24 09:30:16;;;;;;;6.68;3.22;;;13.10;99.90;;;;;;4992938;28;20037;-86
2022/04/24 09:32:50;;;;;;;7.72;3.20;;;13.00;99.90;;;;;;5005235;28;20046;-85
2022/04/24 09:36:09;;;;;;;4.82;2.75;;;13.00;99.90;;;;;;5012109;28;20140;-87
2022/04/24 09:38:45;;;;;;;4.50;2.35;;;12.90;99.90;;;;;;4920263;29;20063;-87
2022/04/24 09:41:22;;;;;;;7.97;2.75;;;13.20;99.90;;;;;;4908643;29;20039;-90
2022/04/24 09:43:49;;;;;;;4.78;2.58;;;13.30;99.90;;;;;;4918412;29;20118;-89
2022/04/24 09:46:25;;;;;;;4.32;2.67;;;13.30;99.90;;;;;;4902627;29;20047;-89
2022/04/24 09:48:52;;;;;;;4.30;2.40;;;13.30;99.90;;;;;;4978206;28;20046;-87
2022/04/24 09:51:18;;;;;;;5.50;2.97;;;13.60;99.90;;;;;;4947727;28;20070;-86
2022/04/24 09:53:46;;;;;;;6.25;2.72;;;13.60;99.90;;;;;;4962326;28;20066;-86
2022/04/24 09:56:19;;;;;;;4.35;2.50;;;13.70;99.90;;;;;;4945910;28;20058;-88
2022/04/24 09:58:47;;;;;;;8.07;2.95;;;13.80;99.90;;;;;;4964065;28;20046;-86
2022/04/24 10:01:14;;;;;;;4.68;2.63;;;13.80;99.90;;;;;;4960365;28;20179;-87
2022/04/24 10:03:39;;;;;;;5.03;2.22;;;13.90;99.90;;;;;;4978735;28;20047;-85
2022/04/24 10:06:07;;;;;;;4.90;2.67;;;14.20;99.90;;;;;;4977116;28;20062;-87
2022/04/24 10:08:36;;;;;;;3.55;2.13;;;14.40;99.90;;;;;;4959386;28;20061;-89
2022/04/24 10:11:06;;;;;;;4.97;2.53;;;14.60;99.90;;;;;;4958401;28;20069;-85
2022/04/24 10:13:35;;;;;;;6.30;2.47;;;14.50;99.90;;;;;;4987040;28;20047;-87
2022/04/24 10:16:22;;;;;;;3.95;2.47;;;14.50;99.90;;;;;;5032466;28;20048;-87
2022/04/24 10:19:28;;;;;;;6.03;2.60;;;14.50;99.90;;;;;;5055239;28;20471;-87
2022/04/24 10:22:11;;;;;;;;;;;14.50;99.90;;;;;;5037959;28;20135;-89
2022/04/24 10:24:45;;;;;;;7.50;2.55;;;14.40;99.90;;;;;;5020089;28;19932;-86
2022/04/24 10:27:12;;;;;;;5.30;2.55;;;14.60;99.90;;;;;;5046091;28;20139;-86
2022/04/24 10:29:51;;;;;;;5.68;2.42;;;14.80;99.90;;;;;;5047763;28;20072;-86
2022/04/24 10:32:30;;;;;;;7.20;2.70;;;14.70;99.90;;;;;;5057366;28;20079;-88
2022/04/24 10:34:56;;;;;;;3.45;2.42;;;14.80;99.90;;;;;;5063689;28;20048;-86
2022/04/24 10:37:33;;;;;;;4.40;2.42;;;15.00;99.90;;;;;;5066081;28;20040;-88
2022/04/24 10:40:00;;;;;;;4.05;2.00;;;15.40;99.90;;;;;;5068427;28;20040;-88
2022/04/24 10:42:35;;;;;;;6.63;2.60;;;15.20;99.90;;;;;;5037823;28;20479;-89
2022/04/24 10:45:21;;;;;;;7.05;2.70;;;15.30;99.90;;;;;;5040502;28;20130;-88
2022/04/24 10:47:50;;;;;;;6.40;2.50;;;15.40;99.90;;;;;;5036188;28;20045;-88
2022/04/24 10:50:22;;;;;;;4.57;2.10;;;15.60;99.90;;;;;;5053894;28;20060;-88
2022/04/24 10:52:50;;;;;;;4.93;2.15;;;15.30;99.90;;;;;;5056790;28;20048;-89
2022/04/24 10:55:19;;;;;;;4.20;1.95;;;15.60;99.90;;;;;;5039743;28;20032;-89
2022/04/24 10:57:57;;;;;;;4.57;2.20;;;15.90;99.90;;;;;;5038577;28;20028;-88
2022/04/24 11:00:29;;;;;;;4.72;2.40;;;16.30;99.90;;;;;;5056969;28;20041;-88
2022/04/24 11:03:14;;;;;;;4.32;2.08;;;16.30;99.90;;;;;;5039954;28;20057;-88
2022/04/24 11:05:42;;;;;;;9.45;2.50;;;16.40;99.90;;;;;;5040465;28;20091;-89
2022/04/24 11:08:10;;;;;;;3.78;2.13;;;16.50;99.90;;;;;;5043694;28;20059;-87
2022/04/24 11:10:43;;;;;;;5.43;2.30;;;16.20;99.90;;;;;;5038466;28;20083;-86
2022/04/24 11:13:11;;;;;;;5.22;2.63;;;16.00;99.90;;;;;;5055030;28;20056;-88
2022/04/24 11:15:42;;;;;;;3.30;2.50;;;15.70;99.90;;;;;;5038458;28;20133;-87
2022/04/24 11:18:19;;;;;;;5.70;2.63;;;16.00;99.90;;;;;;5036635;28;20132;-87
2022/04/24 11:21:03;;;;;;;7.57;2.80;;;15.80;99.90;;;;;;5032046;28;20049;-84
2022/04/24 11:23:45;;;;;;;4.82;2.78;;;15.80;99.90;;;;;;5022434;28;20124;-87
2022/04/24 11:26:12;;;;;;;7.60;2.92;;;15.60;99.90;;;;;;5033929;28;20114;-80
2022/04/24 11:28:42;;;;;;;4.60;2.63;;;15.60;99.90;;;;;;5028935;28;20062;-79
2022/04/24 11:31:17;;;;;;;9.65;3.05;;;15.80;99.90;;;;;;5046644;28;20045;-78
2022/04/24 11:33:50;;;;;;;4.53;2.42;;;15.70;99.90;;;;;;5033533;28;20050;-79
2022/04/24 11:36:16;;;;;;;8.88;3.03;;;15.70;99.90;;;;;;5042808;28;20199;-80
2022/04/24 11:38:44;;;;;;;5.80;3.00;;;15.50;99.90;;;;;;5052928;28;20147;-81
2022/04/24 11:41:15;;;;;;;4.32;3.25;;;15.60;99.90;;;;;;5036127;28;20057;-79
2022/04/24 11:43:44;;;;;;;8.05;3.25;;;16.00;99.90;;;;;;5045119;28;20041;-81
2022/04/24 11:51:44;;;;;;;7.20;3.55;;;15.80;99.90;;;;;;5050479;28;20040;-82
2022/04/24 11:54:11;;;;;;;4.40;2.83;;;16.00;99.90;;;;;;5026765;28;20048;-80
2022/04/24 11:56:37;;;;;;;5.80;3.60;;;15.80;99.90;;;;;;5050304;28;20053;-79
2022/04/24 11:59:19;;;;;;;6.95;3.50;;;16.30;99.90;;;;;;5029499;28;20048;-78
2022/04/24 12:01:54;;;;;;;5.63;3.30;;;15.60;99.90;;;;;;5045066;28;20076;-78
2022/04/24 12:04:21;;;;;;;5.10;3.17;;;15.00;99.90;;;;;;5016311;28;20163;-78
2022/04/24 12:06:48;;;;;;;5.85;3.17;;;15.20;99.90;;;;;;5044058;28;20262;-78
2022/04/24 12:09:14;;;;;;;5.53;3.20;;;15.60;99.90;;;;;;5040658;28;20041;-78
2022/04/24 12:11:40;;;;;;;8.93;3.47;;;16.00;99.90;;;;;;5025927;28;20115;-77
2022/04/24 12:14:10;;;;;;;7.90;3.53;;;16.10;99.90;;;;;;5047829;28;20167;-80
2022/04/24 12:16:48;;;;;;;9.30;3.50;;;15.90;99.90;;;;;;5030910;28;20044;-81
2022/04/24 12:19:18;;;;;;;3.63;3.03;;;15.90;99.90;;;;;;5025923;28;20145;-80
2022/04/24 12:21:53;;;;;;;6.50;3.40;;;15.70;99.90;;;;;;5029447;28;20067;-80
2022/04/24 12:24:18;;;;;;;;;;;15.60;99.90;;;;;;5025549;28;20044;-81
2022/04/24 12:26:52;;;;;;;5.53;3.28;;;16.30;99.90;;;;;;5031712;28;19917;-81
2022/04/24 12:29:19;;;;;;;11.27;3.25;;;15.90;99.90;;;;;;5049261;28;20416;-82
2022/04/24 12:31:46;;;;;;;3.88;3.00;;;16.10;99.90;;;;;;5030631;28;20047;-80
2022/04/24 12:34:15;;;;;;;6.07;3.10;;;16.00;99.90;;;;;;5050189;28;20040;-82
2022/04/24 12:36:50;;;;;;;7.15;3.47;;;16.40;99.90;;;;;;5069168;28;20394;-81
2022/04/24 12:39:25;;;;;;;7.60;3.53;;;16.70;99.90;;;;;;5034014;28;20495;-86
2022/04/24 12:41:52;;;;;;;7.80;3.60;;;16.60;99.90;;;;;;5050063;28;20081;-83
2022/04/24 12:44:18;;;;;;;8.63;3.30;;;16.60;99.90;;;;;;5052427;28;20044;-78
2022/04/24 12:46:43;;;;;;;8.15;3.58;;;16.50;99.90;;;;;;5051471;28;20043;-80
2022/04/24 12:49:09;;;;;;;3.92;2.83;;;16.50;99.90;;;;;;5032718;28;20067;-84
2022/04/24 12:51:35;;;;;;;7.43;3.35;;;16.50;99.90;;;;;;5050819;28;20052;-82
2022/04/24 12:54:03;;;;;;;7.40;3.13;;;16.30;99.90;;;;;;5054606;28;20036;-84
2022/04/24 12:56:29;;;;;;;5.32;3.22;;;16.10;99.90;;;;;;5041137;28;20049;-84
2022/04/24 12:58:56;;;;;;;6.80;3.15;;;16.00;99.90;;;;;;5040859;28;20052;-81
2022/04/24 13:01:25;;;;;;;10.98;3.30;;;16.20;99.90;;;;;;5056686;28;20444;-81
2022/04/24 13:03:54;;;;;;;8.80;3.53;;;16.30;99.90;;;;;;5039261;28;20037;-82
2022/04/24 13:06:25;;;;;;;7.43;3.58;;;16.60;99.90;;;;;;5039354;28;20099;-77
2022/04/24 13:08:53;;;;;;;8.60;3.33;;;16.90;99.90;;;;;;5061565;28;20033;-77